Time;durP1;ratioP1;P1;durP2;ratioP2;P2;SDS_P1;SDS_P2;PMS_P1;PMS_P2;Temp;Humidity;BMP_temperature;BMP_pressure;BME280_temperature;BME280_humidity;BME280_pressure;Samples;Min_cycle;Max_cycle;Signal;HPM_P1;HPM_P2
2022/08/01 00:02:10;;;;;;;2.63;2.42;;;24.50;97.20;;;;;;6098509;28;90229;-66
2022/08/01 00:05:14;;;;;;;2.70;2.50;;;24.50;97.40;;;;;;6094975;28;88192;-66
2022/08/01 00:08:16;;;;;;;3.20;2.80;;;24.50;97.60;;;;;;6097265;28;89125;-66
2022/08/01 00:11:18;;;;;;;2.60;2.40;;;24.50;97.70;;;;;;6097855;28;89054;-66
2022/08/01 00:14:20;;;;;;;3.47;2.40;;;24.50;97.80;;;;;;6097570;28;88317;-66
2022/08/01 00:17:22;;;;;;;2.50;2.30;;;24.50;97.80;;;;;;6104851;28;89406;-66
2022/08/01 00:20:25;;;;;;;2.42;2.22;;;24.60;97.80;;;;;;6109338;28;89241;-66
2022/08/01 00:23:28;;;;;;;2.50;2.30;;;24.50;97.70;;;;;;6107748;28;90012;-66
2022/08/01 00:26:30;;;;;;;3.47;2.30;;;24.50;97.60;;;;;;6108393;28;89221;-66
2022/08/01 00:29:31;;;;;;;2.70;2.50;;;24.50;97.60;;;;;;6104482;28;90540;-66
2022/08/01 00:32:34;;;;;;;3.55;2.35;;;24.50;97.40;;;;;;6101263;28;89195;-66
2022/08/01 00:35:37;;;;;;;2.72;2.40;;;24.50;97.20;;;;;;6087207;28;89202;-66
2022/08/01 00:38:39;;;;;;;3.85;2.60;;;24.40;97.40;;;;;;6093359;28;87943;-66
2022/08/01 00:41:41;;;;;;;3.10;2.80;;;24.50;97.60;;;;;;6098767;28;87623;-66
2022/08/01 00:44:43;;;;;;;2.85;2.65;;;24.40;97.70;;;;;;6097355;28;88662;-66
2022/08/01 00:47:45;;;;;;;3.33;2.50;;;24.40;97.70;;;;;;6105574;28;89484;-66
2022/08/01 00:50:49;;;;;;;2.80;2.60;;;24.40;97.70;;;;;;6100518;28;89375;-66
2022/08/01 00:53:52;;;;;;;2.83;2.30;;;24.40;97.70;;;;;;6092999;28;90058;-66
2022/08/01 00:56:54;;;;;;;2.78;2.30;;;24.40;97.80;;;;;;6101001;28;88770;-66
2022/08/01 00:59:57;;;;;;;2.80;2.53;;;24.50;97.90;;;;;;6108756;28;89174;-66
2022/08/01 01:02:59;;;;;;;2.80;2.38;;;24.40;97.90;;;;;;6101426;28;89047;-66
2022/08/01 01:06:19;;;;;;;2.83;2.50;;;24.40;98.00;;;;;;6092793;28;89049;-66
2022/08/01 01:09:34;;;;;;;2.28;2.10;;;24.40;98.20;;;;;;6099171;28;89081;-66
2022/08/01 01:12:45;;;;;;;2.33;2.05;;;24.50;98.50;;;;;;6103823;28;89160;-66
2022/08/01 01:15:50;;;;;;;2.50;2.30;;;24.40;98.90;;;;;;6108639;28;88283;-65
2022/08/01 01:18:55;;;;;;;3.45;2.92;;;24.50;98.70;;;;;;6096983;28;87999;-66
2022/08/01 01:22:18;;;;;;;2.58;2.40;;;24.50;98.80;;;;;;6104648;28;89004;-66
2022/08/01 01:25:40;;;;;;;2.80;2.60;;;24.40;99.20;;;;;;6098159;28;90290;-66
2022/08/01 01:29:06;;;;;;;3.05;2.70;;;24.50;99.30;;;;;;6096181;28;87916;-66
2022/08/01 01:32:17;;;;;;;3.97;2.85;;;24.50;99.80;;;;;;6097813;28;89067;-66
2022/08/01 01:35:25;;;;;;;3.38;2.90;;;24.50;99.90;;;;;;6091122;28;89052;-66
2022/08/01 01:38:30;;;;;;;2.70;2.50;;;24.40;99.90;;;;;;6099991;28;89242;-66
2022/08/01 01:41:32;;;;;;;3.28;2.70;;;24.40;99.90;;;;;;6102112;28;88952;-66
2022/08/01 01:44:38;;;;;;;2.90;2.70;;;24.40;99.90;;;;;;6102418;28;89184;-66
2022/08/01 01:47:40;;;;;;;2.85;2.60;;;24.40;99.90;;;;;;6110336;28;88374;-65
2022/08/01 01:50:44;;;;;;;2.88;2.67;;;24.40;99.90;;;;;;6112054;28;89107;-66
2022/08/01 01:53:46;;;;;;;2.97;2.78;;;24.40;99.90;;;;;;6111125;28;89377;-66
2022/08/01 01:56:50;;;;;;;2.85;2.65;;;24.40;99.90;;;;;;6105109;28;90118;-66
2022/08/01 01:59:55;;;;;;;4.18;2.70;;;24.40;99.90;;;;;;6105123;28;88997;-66
2022/08/01 02:02:59;;;;;;;3.03;2.72;;;24.40;99.90;;;;;;6097094;28;89379;-66
2022/08/01 02:06:03;;;;;;;3.10;2.80;;;24.50;99.90;;;;;;6111400;28;89168;-66
2022/08/01 02:09:06;;;;;;;3.20;3.00;;;24.50;99.90;;;;;;6092783;28;88072;-66
2022/08/01 02:12:11;;;;;;;3.10;2.75;;;24.40;99.90;;;;;;6092211;28;88289;-66
2022/08/01 02:15:17;;;;;;;4.18;3.00;;;24.40;99.90;;;;;;6110621;28;89117;-66
2022/08/01 02:18:18;;;;;;;3.22;3.03;;;24.40;99.90;;;;;;6102419;28;88466;-66
2022/08/01 02:21:27;;;;;;;3.10;2.90;;;24.40;99.90;;;;;;6090170;28;89107;-66
2022/08/01 02:24:37;;;;;;;3.33;3.03;;;24.40;99.90;;;;;;6108774;28;88988;-66
2022/08/01 02:27:43;;;;;;;2.88;2.67;;;24.40;99.90;;;;;;6104761;28;89950;-66
2022/08/01 02:30:49;;;;;;;3.30;3.00;;;24.40;99.90;;;;;;6088599;28;89111;-66
2022/08/01 02:33:58;;;;;;;3.28;3.03;;;24.40;99.90;;;;;;6099898;28;89180;-66
2022/08/01 02:37:01;;;;;;;3.33;2.80;;;24.40;99.90;;;;;;6103683;28;89253;-67
2022/08/01 02:40:05;;;;;;;3.10;2.90;;;24.40;99.90;;;;;;6110635;28;88033;-66
2022/08/01 02:43:08;;;;;;;2.83;2.63;;;24.40;99.90;;;;;;6101226;28;89169;-67
2022/08/01 02:46:18;;;;;;;3.42;2.88;;;24.40;99.90;;;;;;6099634;28;89155;-66
2022/08/01 02:49:22;;;;;;;5.43;2.97;;;24.40;99.90;;;;;;6098772;28;88368;-66
2022/08/01 02:52:26;;;;;;;3.20;2.90;;;24.40;99.90;;;;;;6088022;28;89444;-66
2022/08/01 02:55:31;;;;;;;3.45;2.95;;;24.40;99.90;;;;;;6107596;28;89102;-66
2022/08/01 02:58:36;;;;;;;3.55;3.10;;;24.40;99.90;;;;;;6110430;28;90377;-66
2022/08/01 03:01:42;;;;;;;3.38;3.08;;;24.40;99.90;;;;;;6110358;28;89282;-66
2022/08/01 03:04:46;;;;;;;3.20;3.00;;;24.40;99.90;;;;;;6108733;28;89494;-66
2022/08/01 03:07:49;;;;;;;3.40;3.10;;;24.40;99.90;;;;;;6104554;28;87948;-66
2022/08/01 03:10:53;;;;;;;3.40;3.10;;;24.40;99.90;;;;;;6094037;28;89575;-67
2022/08/01 03:13:57;;;;;;;3.38;3.08;;;24.40;99.90;;;;;;6093004;28;88960;-66
2022/08/01 03:17:01;;;;;;;3.13;2.90;;;24.40;99.90;;;;;;6097715;28;88991;-66
2022/08/01 03:20:05;;;;;;;3.47;3.17;;;24.40;99.90;;;;;;6106928;28;88337;-66
2022/08/01 03:23:10;;;;;;;4.10;2.92;;;24.30;99.90;;;;;;6106451;28;89124;-65
2022/08/01 03:26:13;;;;;;;3.15;2.85;;;24.40;99.90;;;;;;6110213;28;89209;-66
2022/08/01 03:29:17;;;;;;;3.92;3.33;;;24.30;99.90;;;;;;6096456;28;89964;-66
2022/08/01 03:32:22;;;;;;;3.20;2.90;;;24.40;99.90;;;;;;6087634;28;89106;-66
2022/08/01 03:35:30;;;;;;;3.90;3.08;;;24.40;99.90;;;;;;6103043;28;87523;-66
2022/08/01 03:38:38;;;;;;;3.40;3.10;;;24.40;99.90;;;;;;6100847;28;89099;-66
2022/08/01 03:41:44;;;;;;;4.93;3.25;;;24.40;99.90;;;;;;6105966;28;89416;-66
2022/08/01 03:45:00;;;;;;;3.85;3.22;;;24.40;99.90;;;;;;6100489;28;89091;-66
2022/08/01 03:48:09;;;;;;;4.15;3.63;;;24.40;99.90;;;;;;6100288;28;89101;-67
2022/08/01 03:51:12;;;;;;;3.60;3.30;;;24.30;99.90;;;;;;6107517;28;88415;-66
2022/08/01 03:54:16;;;;;;;3.28;3.03;;;24.30;99.90;;;;;;6090314;28;89228;-66
2022/08/01 03:57:19;;;;;;;3.80;3.40;;;24.30;99.90;;;;;;6107115;28;89050;-66
2022/08/01 04:00:22;;;;;;;3.92;3.28;;;24.30;99.90;;;;;;6098785;28;90224;-66
2022/08/01 04:03:26;;;;;;;3.58;3.13;;;24.40;99.90;;;;;;6098650;28;89067;-66
2022/08/01 04:06:28;;;;;;;3.28;2.97;;;24.30;99.90;;;;;;6095842;28;89165;-66
2022/08/01 04:09:30;;;;;;;5.18;3.42;;;24.30;99.90;;;;;;6105109;28;89032;-66
2022/08/01 04:12:32;;;;;;;3.67;3.38;;;24.30;99.90;;;;;;6087137;28;88047;-66
2022/08/01 04:15:34;;;;;;;3.30;3.00;;;24.30;99.90;;;;;;6091501;28;89400;-66
2022/08/01 04:18:37;;;;;;;4.38;3.10;;;24.30;99.90;;;;;;6090895;28;87982;-66
2022/08/01 04:21:39;;;;;;;4.30;3.30;;;24.30;99.90;;;;;;6096885;28;88411;-67
2022/08/01 04:24:43;;;;;;;3.60;3.30;;;24.30;99.90;;;;;;6100236;28;89426;-66
2022/08/01 04:27:52;;;;;;;4.72;3.28;;;24.30;99.90;;;;;;6097415;28;89130;-67
2022/08/01 04:30:59;;;;;;;3.80;3.42;;;24.40;99.90;;;;;;6088291;28;90012;-65
2022/08/01 04:34:04;;;;;;;3.72;3.42;;;24.30;99.90;;;;;;6096796;28;89443;-66
2022/08/01 04:37:10;;;;;;;4.70;3.17;;;24.30;99.90;;;;;;6108451;28;89214;-65
2022/08/01 04:40:13;;;;;;;4.00;3.60;;;24.30;99.90;;;;;;6093739;28;87986;-66
2022/08/01 04:43:15;;;;;;;4.07;3.10;;;24.30;99.90;;;;;;6104551;28;88027;-66
2022/08/01 04:46:18;;;;;;;3.80;3.50;;;24.30;99.90;;;;;;6094992;28;89405;-66
2022/08/01 04:49:22;;;;;;;4.20;3.80;;;24.40;99.90;;;;;;6107529;28;89129;-65
2022/08/01 04:52:24;;;;;;;5.05;4.55;;;24.30;99.90;;;;;;6095972;28;88179;-65
2022/08/01 04:55:26;;;;;;;4.30;3.90;;;24.40;99.90;;;;;;6095809;28;89310;-65
2022/08/01 04:58:28;;;;;;;4.93;4.43;;;24.40;99.90;;;;;;6091906;28;89041;-66
2022/08/01 05:01:30;;;;;;;3.90;3.58;;;24.50;99.90;;;;;;6089639;28;89952;-65
2022/08/01 05:04:34;;;;;;;4.43;3.60;;;24.50;99.90;;;;;;6093339;28;89058;-65
2022/08/01 05:07:36;;;;;;;3.53;3.20;;;24.50;99.90;;;;;;6090708;28;89100;-65
2022/08/01 05:10:38;;;;;;;3.80;3.40;;;24.50;99.90;;;;;;6093202;28;89366;-65
2022/08/01 05:13:40;;;;;;;3.72;3.35;;;24.50;99.90;;;;;;6089922;28;88961;-65
2022/08/01 05:16:42;;;;;;;4.68;3.40;;;24.40;99.90;;;;;;6092508;28;89017;-66
2022/08/01 05:19:46;;;;;;;3.33;3.03;;;24.40;99.90;;;;;;6088969;28;89096;-66
2022/08/01 05:22:47;;;;;;;3.67;3.38;;;24.40;99.90;;;;;;6087914;28;87259;-66
2022/08/01 05:25:49;;;;;;;3.70;3.40;;;24.40;99.90;;;;;;6092723;28;89341;-66
2022/08/01 05:29:19;;;;;;;3.38;3.08;;;24.40;99.90;;;;;;6082857;28;89230;-66
2022/08/01 05:32:21;;;;;;;3.47;3.17;;;24.40;99.90;;;;;;6099786;28;90139;-66
2022/08/01 05:35:24;;;;;;;3.22;2.92;;;24.50;99.90;;;;;;6105901;28;88732;-66
2022/08/01 05:38:26;;;;;;;4.15;3.85;;;24.40;99.90;;;;;;6108617;28;88991;-66
2022/08/01 05:41:28;;;;;;;4.40;3.97;;;24.50;99.90;;;;;;6107845;28;88927;-66
2022/08/01 05:44:31;;;;;;;4.43;3.67;;;24.40;99.90;;;;;;6089454;28;87838;-66
2022/08/01 05:47:33;;;;;;;3.92;3.63;;;24.40;99.90;;;;;;6102112;28;89006;-66
2022/08/01 05:50:36;;;;;;;4.25;3.60;;;24.40;99.90;;;;;;6107512;28;89088;-66
2022/08/01 05:53:38;;;;;;;5.38;3.60;;;24.40;99.90;;;;;;6105073;28;88430;-66
2022/08/01 05:56:40;;;;;;;3.88;3.05;;;24.40;99.90;;;;;;6107222;28;89025;-66
2022/08/01 05:59:42;;;;;;;4.65;3.17;;;24.40;99.90;;;;;;6107445;28;89053;-66
2022/08/01 06:02:44;;;;;;;4.50;3.25;;;24.30;99.90;;;;;;6099523;28;90218;-65
2022/08/01 06:05:48;;;;;;;4.65;3.25;;;24.30;99.60;;;;;;6107446;28;89099;-66
2022/08/01 06:08:50;;;;;;;3.00;2.70;;;24.30;99.10;;;;;;6101763;28;89043;-66
2022/08/01 06:11:52;;;;;;;3.25;2.95;;;24.30;98.60;;;;;;6105513;28;89047;-66
2022/08/01 06:14:54;;;;;;;3.38;2.85;;;24.30;98.60;;;;;;6100811;28;89096;-66
2022/08/01 06:17:56;;;;;;;2.97;2.78;;;24.30;98.80;;;;;;6100562;28;89001;-66
2022/08/01 06:20:59;;;;;;;3.33;3.03;;;24.30;99.60;;;;;;6100815;28;89382;-66
2022/08/01 06:24:01;;;;;;;3.05;2.85;;;24.30;99.40;;;;;;6095443;28;88328;-66
2022/08/01 06:27:04;;;;;;;3.30;3.00;;;24.30;99.30;;;;;;6096841;28;89148;-66
2022/08/01 06:30:07;;;;;;;3.00;2.80;;;24.30;98.90;;;;;;6098531;28;89189;-66
2022/08/01 06:33:09;;;;;;;3.70;3.10;;;24.30;98.60;;;;;;6109402;28;90811;-67
2022/08/01 06:36:12;;;;;;;3.42;3.13;;;24.30;97.70;;;;;;6099156;28;88781;-66
2022/08/01 06:39:14;;;;;;;3.35;2.85;;;24.20;96.80;;;;;;6104700;28;89007;-67
2022/08/01 06:42:17;;;;;;;3.33;3.03;;;24.30;95.90;;;;;;6096379;28;88826;-67
2022/08/01 06:45:22;;;;;;;3.22;2.92;;;24.30;96.30;;;;;;6103810;28;89194;-67
2022/08/01 06:48:24;;;;;;;3.35;3.08;;;24.20;96.20;;;;;;6101252;28;89022;-67
2022/08/01 06:51:27;;;;;;;3.30;3.00;;;24.20;96.20;;;;;;6099039;28;89143;-67
2022/08/01 06:54:29;;;;;;;3.58;3.28;;;24.20;96.80;;;;;;6106974;28;88369;-67
2022/08/01 06:57:31;;;;;;;4.32;2.78;;;24.30;96.20;;;;;;6109954;28;89155;-66
2022/08/01 07:00:33;;;;;;;4.95;2.90;;;24.20;96.00;;;;;;6107219;28;88966;-67
2022/08/01 07:03:36;;;;;;;2.95;2.65;;;24.30;96.00;;;;;;6105501;28;89995;-67
2022/08/01 07:06:40;;;;;;;3.30;3.00;;;24.20;96.40;;;;;;6091257;28;87936;-67
2022/08/01 07:09:42;;;;;;;3.95;3.22;;;24.20;96.20;;;;;;6103201;28;88821;-67
2022/08/01 07:12:44;;;;;;;3.78;3.33;;;24.20;96.60;;;;;;6099897;28;89150;-67
2022/08/01 07:15:46;;;;;;;5.20;3.47;;;24.30;96.30;;;;;;6099315;28;89090;-67
2022/08/01 07:18:48;;;;;;;4.10;3.65;;;24.30;96.20;;;;;;6098488;28;87902;-67
2022/08/01 07:21:51;;;;;;;3.50;3.22;;;24.20;96.00;;;;;;6087425;28;88079;-67
2022/08/01 07:24:53;;;;;;;4.25;3.17;;;24.20;96.30;;;;;;6100157;28;88537;-67
2022/08/01 07:27:56;;;;;;;4.32;3.40;;;24.20;95.80;;;;;;6102686;28;89166;-67
2022/08/01 07:30:58;;;;;;;3.80;3.42;;;24.20;95.60;;;;;;6109463;28;88982;-67
2022/08/01 07:34:00;;;;;;;3.58;3.20;;;24.20;96.40;;;;;;6103984;28;89948;-67
2022/08/01 07:37:03;;;;;;;3.35;3.05;;;24.30;97.10;;;;;;6106415;28;89117;-67
2022/08/01 07:40:06;;;;;;;3.85;3.00;;;24.30;96.80;;;;;;6101622;28;89190;-67
2022/08/01 07:43:08;;;;;;;3.78;3.20;;;24.30;96.30;;;;;;6103902;28;88024;-67
2022/08/01 07:46:10;;;;;;;3.67;3.38;;;24.30;96.50;;;;;;6108586;28;89244;-68
2022/08/01 07:49:13;;;;;;;3.63;3.28;;;24.30;96.30;;;;;;6096272;28;89207;-67
2022/08/01 07:52:16;;;;;;;4.22;3.40;;;24.30;96.40;;;;;;6102278;28;89659;-67
2022/08/01 07:55:18;;;;;;;3.60;3.30;;;24.30;96.40;;;;;;6094920;28;88338;-67
2022/08/01 07:58:20;;;;;;;3.83;3.40;;;24.30;96.10;;;;;;6108816;28;91434;-68
2022/08/01 08:01:22;;;;;;;3.67;3.38;;;24.30;96.90;;;;;;6105840;28;89091;-67
2022/08/01 08:04:24;;;;;;;3.50;3.20;;;24.30;97.10;;;;;;6101177;28;90029;-68
2022/08/01 08:07:27;;;;;;;3.92;3.20;;;24.30;97.10;;;;;;6100709;28;90274;-68
2022/08/01 08:10:29;;;;;;;4.18;3.63;;;24.30;97.30;;;;;;6105494;28;89161;-68
2022/08/01 08:13:31;;;;;;;3.50;3.17;;;24.30;98.10;;;;;;6102415;28;87973;-68
2022/08/01 08:16:33;;;;;;;4.78;3.50;;;24.30;98.20;;;;;;6101419;28;89174;-68
2022/08/01 08:19:38;;;;;;;5.68;3.40;;;24.30;98.60;;;;;;6105364;28;89096;-68
2022/08/01 08:22:42;;;;;;;4.53;3.20;;;24.30;98.60;;;;;;6100393;28;89130;-69
2022/08/01 08:25:44;;;;;;;3.63;3.30;;;24.30;98.40;;;;;;6102946;28;88328;-68
2022/08/01 08:28:46;;;;;;;4.57;3.88;;;24.30;98.70;;;;;;6100526;28;89053;-68
2022/08/01 08:31:48;;;;;;;4.15;3.50;;;24.30;99.30;;;;;;6102897;28;89142;-69
2022/08/01 08:34:50;;;;;;;4.22;3.58;;;24.30;99.30;;;;;;6097009;28;89968;-67
2022/08/01 08:37:54;;;;;;;3.88;3.40;;;24.40;99.00;;;;;;6107098;28;89162;-68
2022/08/01 08:40:57;;;;;;;4.75;3.42;;;24.40;98.80;;;;;;6107024;28;89089;-68
2022/08/01 08:43:59;;;;;;;3.97;3.25;;;24.40;98.90;;;;;;6106632;28;89592;-69
2022/08/01 08:47:04;;;;;;;4.13;3.60;;;24.40;98.90;;;;;;6095977;28;89065;-68
2022/08/01 08:50:07;;;;;;;3.50;3.20;;;24.40;98.80;;;;;;6104633;28;89397;-68
2022/08/01 08:53:14;;;;;;;4.10;3.65;;;24.40;99.00;;;;;;6095257;28;90537;-68
2022/08/01 08:56:16;;;;;;;4.10;3.40;;;24.40;99.00;;;;;;6088179;28;87548;-68
2022/08/01 08:59:18;;;;;;;4.13;3.50;;;24.40;99.00;;;;;;6106681;28;89017;-69
2022/08/01 09:02:20;;;;;;;3.70;3.40;;;24.40;99.40;;;;;;6100066;28;89081;-68
2022/08/01 09:05:26;;;;;;;3.83;3.42;;;24.40;99.50;;;;;;6108015;28;88930;-68
2022/08/01 09:08:29;;;;;;;3.85;3.45;;;24.40;99.40;;;;;;6101001;28;88986;-68
2022/08/01 09:11:33;;;;;;;3.45;3.10;;;24.40;99.70;;;;;;6092824;28;89162;-68
2022/08/01 09:14:44;;;;;;;3.90;3.60;;;24.50;99.90;;;;;;6097891;28;89200;-68
2022/08/01 09:17:46;;;;;;;3.50;3.20;;;24.40;99.90;;;;;;6104476;28;89055;-68
2022/08/01 09:20:48;;;;;;;4.32;3.50;;;24.40;99.90;;;;;;6095700;28;88962;-69
2022/08/01 09:23:53;;;;;;;6.15;3.53;;;24.40;99.90;;;;;;6091688;28;88251;-68
2022/08/01 09:26:56;;;;;;;4.00;3.60;;;24.40;99.90;;;;;;6105224;28;88580;-68
2022/08/01 09:30:09;;;;;;;3.63;3.33;;;24.40;99.60;;;;;;6098857;28;89238;-68
2022/08/01 09:33:11;;;;;;;3.70;3.40;;;24.40;99.80;;;;;;6093402;28;89097;-68
2022/08/01 09:36:13;;;;;;;3.53;3.22;;;24.50;99.40;;;;;;6106377;28;90098;-68
2022/08/01 09:39:16;;;;;;;3.70;3.38;;;24.50;99.30;;;;;;6091930;28;89109;-69
2022/08/01 09:42:23;;;;;;;3.92;3.63;;;24.50;99.90;;;;;;6098193;28;89438;-69
2022/08/01 09:45:34;;;;;;;4.75;3.70;;;24.50;99.90;;;;;;6100458;28;89079;-68
2022/08/01 09:48:39;;;;;;;4.10;3.70;;;24.50;99.90;;;;;;6107929;28;89112;-68
2022/08/01 09:51:41;;;;;;;4.43;3.50;;;24.50;99.90;;;;;;6094856;28;88002;-69
2022/08/01 09:54:52;;;;;;;3.63;3.35;;;24.50;99.90;;;;;;6098559;28;89163;-68
2022/08/01 09:57:57;;;;;;;3.85;3.47;;;24.50;99.90;;;;;;6098740;28;88419;-68
2022/08/01 10:01:00;;;;;;;3.80;3.50;;;24.50;99.90;;;;;;6091389;28;89007;-69
2022/08/01 10:04:11;;;;;;;3.88;3.47;;;24.50;99.90;;;;;;6093125;28;89112;-68
2022/08/01 10:07:15;;;;;;;3.60;3.30;;;24.50;99.90;;;;;;6107630;28;89357;-70
2022/08/01 10:10:18;;;;;;;4.68;3.40;;;24.50;99.90;;;;;;6101257;28;88830;-68
2022/08/01 10:13:20;;;;;;;3.58;3.28;;;24.50;99.90;;;;;;6091465;28;89106;-68
2022/08/01 10:16:23;;;;;;;4.00;3.58;;;24.50;99.90;;;;;;6089733;28;89002;-69
2022/08/01 10:19:27;;;;;;;3.78;3.45;;;24.50;99.90;;;;;;6104385;28;89455;-69
2022/08/01 10:22:31;;;;;;;3.63;3.33;;;24.60;99.90;;;;;;6088638;28;89101;-68
2022/08/01 10:25:41;;;;;;;6.93;3.88;;;24.70;99.90;;;;;;6088246;28;89119;-72
2022/08/01 10:28:48;;;;;;;3.50;3.20;;;24.70;99.90;;;;;;6107215;28;88670;-69
2022/08/01 10:31:51;;;;;;;4.22;3.50;;;24.80;99.90;;;;;;6092477;28;89213;-70
2022/08/01 10:34:55;;;;;;;4.22;3.92;;;24.80;99.90;;;;;;6094868;28;89041;-69
2022/08/01 10:37:57;;;;;;;4.25;3.45;;;24.80;99.90;;;;;;6107529;28;90058;-68
2022/08/01 10:41:04;;;;;;;3.90;3.55;;;24.80;99.90;;;;;;6108969;28;89006;-68
2022/08/01 10:44:07;;;;;;;3.40;3.20;;;24.80;99.90;;;;;;6099643;28;89881;-69
2022/08/01 10:47:13;;;;;;;3.65;3.30;;;24.80;99.90;;;;;;6102572;28;89334;-69
2022/08/01 10:50:19;;;;;;;3.30;3.00;;;24.80;99.90;;;;;;6093009;28;89146;-69
2022/08/01 10:53:22;;;;;;;3.35;3.00;;;24.80;99.90;;;;;;6097463;28;89117;-68
2022/08/01 10:56:40;;;;;;;3.55;2.97;;;24.80;99.90;;;;;;6110771;28;89151;-68
2022/08/01 10:59:53;;;;;;;3.40;3.03;;;24.80;99.90;;;;;;6103057;28;87182;-68
2022/08/01 11:03:03;;;;;;;3.67;3.38;;;24.80;99.90;;;;;;6093574;28;89076;-68
2022/08/01 11:06:06;;;;;;;5.70;3.22;;;24.80;99.90;;;;;;6097407;28;89091;-69
2022/08/01 11:09:30;;;;;;;3.10;2.80;;;24.80;99.90;;;;;;6098356;28;90067;-69
2022/08/01 11:12:41;;;;;;;3.55;3.25;;;24.80;99.70;;;;;;6100485;28;91204;-68
2022/08/01 11:15:44;;;;;;;3.28;3.03;;;24.80;99.50;;;;;;6099376;28;89259;-69
2022/08/01 11:18:51;;;;;;;3.28;2.97;;;24.80;99.20;;;;;;6109703;28;89139;-69
2022/08/01 11:22:02;;;;;;;3.45;3.10;;;24.80;98.70;;;;;;6097906;28;89380;-68
2022/08/01 11:25:04;;;;;;;3.33;3.03;;;24.80;98.10;;;;;;6100958;28;89204;-69
2022/08/01 11:28:23;;;;;;;3.63;3.10;;;24.80;97.90;;;;;;6108739;28;89094;-69
2022/08/01 11:31:30;;;;;;;3.15;2.85;;;24.70;97.70;;;;;;6103440;28;88759;-69
2022/08/01 11:34:53;;;;;;;3.22;2.90;;;24.80;97.80;;;;;;6099506;28;89505;-69
2022/08/01 11:37:56;;;;;;;3.40;3.10;;;24.80;97.50;;;;;;6100231;28;88953;-69
2022/08/01 11:41:11;;;;;;;3.28;2.97;;;24.80;98.10;;;;;;6098243;28;88941;-69
2022/08/01 11:44:17;;;;;;;3.00;2.60;;;24.80;98.20;;;;;;6098816;28;89320;-69
2022/08/01 11:47:43;;;;;;;3.08;2.80;;;24.80;97.80;;;;;;6109498;28;89222;-69
2022/08/01 11:50:47;;;;;;;3.25;2.95;;;24.80;97.80;;;;;;6099672;28;89068;-68
2022/08/01 11:53:51;;;;;;;3.15;2.88;;;24.80;97.70;;;;;;6100265;28;89469;-69
2022/08/01 11:56:56;;;;;;;3.70;2.92;;;24.80;97.00;;;;;;6100331;28;89439;-69
2022/08/01 12:00:00;;;;;;;2.67;2.47;;;24.80;96.40;;;;;;6094992;28;89077;-69
2022/08/01 12:03:07;;;;;;;4.70;2.80;;;24.80;96.50;;;;;;6104392;28;88321;-67
2022/08/01 12:06:11;;;;;;;2.72;2.53;;;24.70;96.30;;;;;;6102949;28;89571;-69
2022/08/01 12:09:20;;;;;;;2.63;2.42;;;24.80;96.40;;;;;;6109828;28;89331;-68
2022/08/01 12:12:22;;;;;;;2.80;2.53;;;24.80;96.60;;;;;;6109804;28;90370;-69
2022/08/01 12:15:25;;;;;;;2.55;2.35;;;24.80;95.20;;;;;;6109403;28;89062;-68
2022/08/01 12:18:27;;;;;;;2.65;2.40;;;24.80;95.40;;;;;;6108002;28;89092;-69
2022/08/01 12:21:30;;;;;;;2.60;2.40;;;24.80;95.40;;;;;;6109401;28;89148;-69
2022/08/01 12:24:32;;;;;;;2.70;2.10;;;24.80;95.20;;;;;;6101697;28;89180;-69
2022/08/01 12:27:35;;;;;;;3.08;2.20;;;24.80;94.80;;;;;;6089202;28;89393;-69
2022/08/01 12:30:38;;;;;;;2.60;2.40;;;24.80;94.40;;;;;;6109144;28;89094;-69
2022/08/01 12:33:40;;;;;;;2.30;2.10;;;24.90;94.60;;;;;;6096870;28;88722;-69
2022/08/01 12:36:44;;;;;;;2.53;2.20;;;24.90;93.80;;;;;;6108852;28;89032;-69
2022/08/01 12:39:46;;;;;;;3.13;2.42;;;24.90;93.60;;;;;;6105739;28;89410;-69
2022/08/01 12:42:51;;;;;;;2.47;1.85;;;24.90;93.60;;;;;;6097527;28;90377;-69
2022/08/01 12:45:55;;;;;;;1.85;1.70;;;24.80;92.80;;;;;;6105511;28;90317;-69
2022/08/01 12:48:57;;;;;;;1.90;1.80;;;24.80;92.80;;;;;;6096824;28;87927;-68
2022/08/01 12:52:01;;;;;;;3.78;1.80;;;24.90;92.40;;;;;;6102062;28;89062;-69
2022/08/01 12:55:06;;;;;;;3.28;1.90;;;24.90;92.60;;;;;;6102255;28;89200;-68
2022/08/01 12:58:09;;;;;;;2.08;1.88;;;24.90;92.20;;;;;;6096028;28;89118;-69
2022/08/01 13:01:12;;;;;;;3.83;1.90;;;24.90;91.90;;;;;;6106744;28;88025;-68
2022/08/01 13:04:14;;;;;;;2.80;2.03;;;24.90;91.70;;;;;;6096353;28;88885;-69
2022/08/01 13:07:18;;;;;;;2.75;2.10;;;24.90;91.70;;;;;;6094580;28;89121;-68
2022/08/01 13:10:29;;;;;;;2.10;1.90;;;24.90;92.00;;;;;;6098336;28;88710;-68
2022/08/01 13:13:40;;;;;;;2.05;1.85;;;24.90;91.70;;;;;;6085734;28;90191;-68
2022/08/01 13:16:48;;;;;;;2.42;1.88;;;24.90;91.60;;;;;;6091923;28;88415;-68
2022/08/01 13:19:51;;;;;;;2.15;1.90;;;24.90;91.40;;;;;;6086702;28;89386;-68
2022/08/01 13:22:55;;;;;;;1.98;1.88;;;24.90;91.20;;;;;;6100875;28;89183;-68
2022/08/01 13:25:57;;;;;;;1.98;1.88;;;24.90;91.20;;;;;;6102331;28;88933;-68
2022/08/01 13:29:05;;;;;;;1.90;1.80;;;25.00;91.30;;;;;;6099073;28;89047;-68
2022/08/01 13:32:14;;;;;;;2.05;1.88;;;24.90;90.90;;;;;;6101501;28;89305;-68
2022/08/01 13:35:21;;;;;;;2.75;1.90;;;25.00;90.70;;;;;;6102433;28;88307;-68
2022/08/01 13:41:40;;;;;;;2.20;2.00;;;25.00;91.00;;;;;;6096581;28;87734;-67
2022/08/01 13:44:45;;;;;;;2.42;2.03;;;25.00;91.60;;;;;;6086354;28;90325;-67
2022/08/01 13:47:47;;;;;;;3.60;2.25;;;25.00;91.80;;;;;;6100953;28;89242;-68
2022/08/01 13:50:49;;;;;;;2.60;2.30;;;25.00;93.10;;;;;;6102955;28;89107;-68
2022/08/01 13:53:52;;;;;;;2.58;2.38;;;25.00;93.30;;;;;;6106760;28;89180;-69
2022/08/01 13:56:55;;;;;;;2.63;2.15;;;25.00;93.60;;;;;;6102117;28;89108;-68
2022/08/01 13:59:59;;;;;;;3.53;2.40;;;25.00;94.20;;;;;;6102133;28;89160;-68
2022/08/01 14:03:01;;;;;;;4.97;2.42;;;25.00;94.60;;;;;;6100942;28;88745;-68
2022/08/01 14:06:04;;;;;;;3.50;2.50;;;25.00;94.70;;;;;;6104813;28;87361;-68
2022/08/01 14:09:07;;;;;;;2.63;2.42;;;25.00;94.70;;;;;;6093110;28;89053;-68
2022/08/01 14:12:09;;;;;;;3.20;2.55;;;25.10;95.60;;;;;;6102802;28;89104;-68
2022/08/01 14:15:11;;;;;;;3.03;2.65;;;25.10;96.10;;;;;;6091653;28;89007;-68
2022/08/01 14:18:13;;;;;;;3.25;2.75;;;25.10;96.30;;;;;;6097520;28;89603;-69
2022/08/01 14:21:15;;;;;;;5.95;2.60;;;25.10;96.90;;;;;;6096033;28;88497;-69
2022/08/01 14:24:19;;;;;;;4.55;2.47;;;25.10;96.90;;;;;;6089889;28;89216;-68
2022/08/01 14:27:21;;;;;;;2.47;2.28;;;25.10;96.40;;;;;;6093116;28;89436;-68
2022/08/01 14:30:23;;;;;;;2.45;2.25;;;25.10;96.60;;;;;;6099217;28;89106;-68
2022/08/01 14:33:25;;;;;;;3.53;2.80;;;25.10;96.70;;;;;;6099210;28;88943;-68
2022/08/01 14:36:27;;;;;;;3.00;2.50;;;25.00;96.00;;;;;;6101277;28;88272;-68
2022/08/01 14:39:30;;;;;;;3.72;2.47;;;25.10;96.10;;;;;;6098889;28;88017;-69
2022/08/01 14:42:32;;;;;;;2.50;2.30;;;25.00;96.60;;;;;;6097808;28;88010;-68
2022/08/01 14:45:34;;;;;;;2.60;2.40;;;25.00;97.30;;;;;;6096795;28;90658;-69
2022/08/01 14:48:36;;;;;;;4.05;2.80;;;25.10;97.30;;;;;;6095244;28;87910;-69
2022/08/01 14:51:38;;;;;;;2.92;2.50;;;25.10;97.30;;;;;;6102777;28;88428;-68
2022/08/01 14:54:42;;;;;;;4.85;2.72;;;25.10;97.10;;;;;;6099058;28;89071;-67
2022/08/01 14:57:44;;;;;;;2.80;2.55;;;25.20;97.40;;;;;;6104275;28;89280;-67
2022/08/01 15:00:46;;;;;;;3.08;2.58;;;25.10;96.90;;;;;;6109792;28;89109;-67
2022/08/01 15:03:49;;;;;;;3.90;2.50;;;25.10;97.20;;;;;;6091044;28;88145;-67
2022/08/01 15:06:51;;;;;;;3.10;2.50;;;25.10;97.80;;;;;;6089297;28;88390;-68
2022/08/01 15:09:55;;;;;;;2.97;2.70;;;25.00;98.80;;;;;;6092722;28;89299;-70
2022/08/01 15:12:59;;;;;;;4.78;2.78;;;25.10;99.90;;;;;;6102529;28;88848;-69
2022/08/01 15:16:01;;;;;;;2.55;2.35;;;25.10;99.90;;;;;;6090658;28;90236;-68
2022/08/01 15:19:03;;;;;;;3.97;2.60;;;25.10;99.90;;;;;;6096484;28;88015;-68
2022/08/01 15:22:06;;;;;;;3.10;2.80;;;25.10;99.90;;;;;;6113636;28;89577;-68
2022/08/01 15:25:09;;;;;;;4.60;2.45;;;25.00;99.90;;;;;;6111993;28;89002;-68
2022/08/01 15:28:11;;;;;;;2.50;2.30;;;25.00;99.90;;;;;;6097909;28;89181;-69
2022/08/01 15:31:14;;;;;;;4.03;2.35;;;25.00;99.90;;;;;;6109714;28;89264;-68
2022/08/01 15:34:16;;;;;;;2.50;2.30;;;25.00;99.90;;;;;;6106983;28;89294;-69
2022/08/01 15:37:18;;;;;;;3.03;2.20;;;25.00;99.90;;;;;;6101694;28;88280;-69
2022/08/01 15:40:21;;;;;;;2.83;2.50;;;25.00;99.90;;;;;;6109602;28;89088;-69
2022/08/01 15:43:23;;;;;;;2.85;2.60;;;25.00;99.90;;;;;;6099843;28;88722;-68
2022/08/01 15:46:25;;;;;;;2.90;2.55;;;25.00;99.90;;;;;;6102018;28;90296;-68
2022/08/01 15:49:28;;;;;;;3.35;2.38;;;24.90;99.90;;;;;;6101082;28;89056;-68
2022/08/01 15:52:30;;;;;;;2.63;2.42;;;24.90;99.90;;;;;;6101617;28;89110;-68
2022/08/01 15:55:35;;;;;;;2.28;2.13;;;24.90;99.90;;;;;;6099689;28;89037;-69
2022/08/01 15:58:37;;;;;;;2.85;2.28;;;24.90;99.90;;;;;;6105427;28;89049;-69
2022/08/01 16:01:40;;;;;;;2.90;2.53;;;24.90;99.90;;;;;;6098676;28;89094;-69
2022/08/01 16:04:42;;;;;;;4.28;2.53;;;24.90;99.90;;;;;;6089903;28;89131;-68